sensor_id;sensor_type;location;lat;lon;timestamp;pressure;altitude;pressure_sealevel;temperature;humidity
45991;BME280;31721;41.740;-88.000;2023-02-22T00:00:55;98371.22;;;2.86;29.91
45991;BME280;31721;41.740;-88.000;2023-02-22T00:03:25;98363.71;;;2.81;30.11
45991;BME280;31721;41.740;-88.000;2023-02-22T00:05:54;98358.17;;;2.85;30.21
45991;BME280;31721;41.740;-88.000;2023-02-22T00:08:26;98366.41;;;2.83;30.12
45991;BME280;31721;41.740;-88.000;2023-02-22T00:10:55;98371.02;;;2.90;30.22
45991;BME280;31721;41.740;-88.000;2023-02-22T00:13:23;98360.47;;;2.89;30.48
45991;BME280;31721;41.740;-88.000;2023-02-22T00:15:52;98348.23;;;2.90;30.11
45991;BME280;31721;41.740;-88.000;2023-02-22T00:18:19;98345.42;;;2.91;30.23
45991;BME280;31721;41.740;-88.000;2023-02-22T00:20:47;98336.99;;;2.95;30.14
45991;BME280;31721;41.740;-88.000;2023-02-22T00:23:17;98329.06;;;3.06;30.03
45991;BME280;31721;41.740;-88.000;2023-02-22T00:25:47;98318.08;;;2.99;29.97
45991;BME280;31721;41.740;-88.000;2023-02-22T00:28:16;98317.93;;;2.86;30.12
45991;BME280;31721;41.740;-88.000;2023-02-22T00:30:45;98321.35;;;2.92;29.87
45991;BME280;31721;41.740;-88.000;2023-02-22T00:33:14;98334.82;;;2.98;30.07
45991;BME280;31721;41.740;-88.000;2023-02-22T00:35:44;98338.04;;;2.94;30.19
45991;BME280;31721;41.740;-88.000;2023-02-22T00:38:13;98337.54;;;2.74;29.95
45991;BME280;31721;41.740;-88.000;2023-02-22T00:40:42;98333.36;;;2.76;30.00
45991;BME280;31721;41.740;-88.000;2023-02-22T00:43:09;98334.24;;;2.62;30.29
45991;BME280;31721;41.740;-88.000;2023-02-22T00:45:37;98328.18;;;2.85;30.07
45991;BME280;31721;41.740;-88.000;2023-02-22T00:48:06;98322.37;;;2.84;30.14
45991;BME280;31721;41.740;-88.000;2023-02-22T00:50:34;98322.13;;;2.79;30.27
45991;BME280;31721;41.740;-88.000;2023-02-22T00:53:03;98313.03;;;2.87;30.08
45991;BME280;31721;41.740;-88.000;2023-02-22T00:55:35;98298.94;;;2.75;30.25
45991;BME280;31721;41.740;-88.000;2023-02-22T00:58:04;98298.79;;;2.63;30.19
45991;BME280;31721;41.740;-88.000;2023-02-22T01:00:33;98301.07;;;2.80;30.10
45991;BME280;31721;41.740;-88.000;2023-02-22T01:03:02;98297.20;;;2.70;30.19
45991;BME280;31721;41.740;-88.000;2023-02-22T01:05:31;98293.21;;;2.79;29.96
45991;BME280;31721;41.740;-88.000;2023-02-22T01:08:00;98283.70;;;2.77;30.01
45991;BME280;31721;41.740;-88.000;2023-02-22T01:10:31;98288.14;;;2.74;29.86
45991;BME280;31721;41.740;-88.000;2023-02-22T01:13:00;98300.14;;;2.73;30.24
45991;BME280;31721;41.740;-88.000;2023-02-22T01:15:29;98298.35;;;2.76;30.08
45991;BME280;31721;41.740;-88.000;2023-02-22T01:17:58;98306.08;;;2.73;30.01
45991;BME280;31721;41.740;-88.000;2023-02-22T01:20:27;98308.41;;;2.78;29.99
45991;BME280;31721;41.740;-88.000;2023-02-22T01:22:56;98313.25;;;2.60;30.01
45991;BME280;31721;41.740;-88.000;2023-02-22T01:25:26;98293.07;;;2.71;30.11
45991;BME280;31721;41.740;-88.000;2023-02-22T01:27:55;98294.06;;;2.72;30.17
45991;BME280;31721;41.740;-88.000;2023-02-22T01:30:25;98291.99;;;2.74;30.40
45991;BME280;31721;41.740;-88.000;2023-02-22T01:32:53;98298.53;;;2.71;30.50
45991;BME280;31721;41.740;-88.000;2023-02-22T01:35:25;98297.56;;;2.58;30.32
45991;BME280;31721;41.740;-88.000;2023-02-22T01:37:54;98303.25;;;2.62;30.21
45991;BME280;31721;41.740;-88.000;2023-02-22T01:40:24;98315.33;;;2.71;30.25
45991;BME280;31721;41.740;-88.000;2023-02-22T01:42:55;98322.66;;;2.76;30.14
45991;BME280;31721;41.740;-88.000;2023-02-22T01:45:59;98337.15;;;2.81;30.42
45991;BME280;31721;41.740;-88.000;2023-02-22T01:48:35;98335.72;;;2.80;31.18
45991;BME280;31721;41.740;-88.000;2023-02-22T01:51:08;98317.38;;;2.68;31.68
45991;BME280;31721;41.740;-88.000;2023-02-22T01:53:41;98308.19;;;2.65;31.75
45991;BME280;31721;41.740;-88.000;2023-02-22T01:56:13;98301.42;;;2.49;32.10
45991;BME280;31721;41.740;-88.000;2023-02-22T01:58:45;98304.21;;;2.50;32.50
45991;BME280;31721;41.740;-88.000;2023-02-22T02:01:14;98306.27;;;2.17;34.27
45991;BME280;31721;41.740;-88.000;2023-02-22T02:03:43;98304.69;;;2.38;32.95
45991;BME280;31721;41.740;-88.000;2023-02-22T02:06:13;98312.37;;;2.49;33.40
45991;BME280;31721;41.740;-88.000;2023-02-22T02:08:49;98313.60;;;2.49;33.47
45991;BME280;31721;41.740;-88.000;2023-02-22T02:11:21;98310.81;;;2.35;33.40
45991;BME280;31721;41.740;-88.000;2023-02-22T02:13:50;98313.69;;;2.39;33.50
45991;BME280;31721;41.740;-88.000;2023-02-22T02:16:18;98317.29;;;2.41;33.70
45991;BME280;31721;41.740;-88.000;2023-02-22T02:18:46;98318.48;;;2.41;33.90
45991;BME280;31721;41.740;-88.000;2023-02-22T02:21:37;98321.55;;;2.35;34.03
45991;BME280;31721;41.740;-88.000;2023-02-22T02:29:16;98313.01;;;2.18;34.30
45991;BME280;31721;41.740;-88.000;2023-02-22T02:32:29;98319.66;;;2.13;34.27
45991;BME280;31721;41.740;-88.000;2023-02-22T02:35:03;98300.01;;;2.14;34.41
45991;BME280;31721;41.740;-88.000;2023-02-22T02:37:41;98300.02;;;2.24;34.68
45991;BME280;31721;41.740;-88.000;2023-02-22T02:40:19;98308.97;;;2.22;34.78
45991;BME280;31721;41.740;-88.000;2023-02-22T02:42:54;98310.20;;;2.08;34.60
45991;BME280;31721;41.740;-88.000;2023-02-22T02:45:29;98313.10;;;2.06;34.83
45991;BME280;31721;41.740;-88.000;2023-02-22T02:48:01;98312.00;;;1.91;34.77
45991;BME280;31721;41.740;-88.000;2023-02-22T02:50:35;98317.57;;;1.87;34.88
45991;BME280;31721;41.740;-88.000;2023-02-22T02:53:06;98320.71;;;1.84;35.26
45991;BME280;31721;41.740;-88.000;2023-02-22T02:55:35;98311.71;;;1.67;35.12
45991;BME280;31721;41.740;-88.000;2023-02-22T02:58:05;98315.97;;;1.76;35.25
45991;BME280;31721;41.740;-88.000;2023-02-22T03:00:36;98315.00;;;1.66;35.25
45991;BME280;31721;41.740;-88.000;2023-02-22T03:03:15;98320.61;;;1.61;35.60
45991;BME280;31721;41.740;-88.000;2023-02-22T03:06:02;98315.26;;;1.54;35.74
45991;BME280;31721;41.740;-88.000;2023-02-22T03:08:40;98320.39;;;1.54;35.82
45991;BME280;31721;41.740;-88.000;2023-02-22T03:11:11;98317.37;;;1.37;36.35
45991;BME280;31721;41.740;-88.000;2023-02-22T03:13:51;98316.02;;;1.52;36.00
45991;BME280;31721;41.740;-88.000;2023-02-22T03:16:27;98317.09;;;1.39;36.84
45991;BME280;31721;41.740;-88.000;2023-02-22T03:19:05;98313.75;;;1.16;37.28
45991;BME280;31721;41.740;-88.000;2023-02-22T03:21:41;98313.52;;;1.29;37.23
45991;BME280;31721;41.740;-88.000;2023-02-22T03:24:17;98309.87;;;1.32;36.41
45991;BME280;31721;41.740;-88.000;2023-02-22T03:26:52;98311.47;;;1.26;36.92
45991;BME280;31721;41.740;-88.000;2023-02-22T03:29:23;98312.58;;;1.36;36.84
45991;BME280;31721;41.740;-88.000;2023-02-22T03:31:54;98315.50;;;1.36;36.98
45991;BME280;31721;41.740;-88.000;2023-02-22T03:34:26;98323.59;;;1.40;36.92
45991;BME280;31721;41.740;-88.000;2023-02-22T03:36:59;98327.76;;;1.47;36.83
45991;BME280;31721;41.740;-88.000;2023-02-22T03:39:28;98330.74;;;1.38;37.32
45991;BME280;31721;41.740;-88.000;2023-02-22T03:42:02;98328.04;;;1.41;37.14
45991;BME280;31721;41.740;-88.000;2023-02-22T03:44:35;98324.32;;;1.61;37.27
45991;BME280;31721;41.740;-88.000;2023-02-22T03:47:06;98317.77;;;1.54;37.41
45991;BME280;31721;41.740;-88.000;2023-02-22T03:49:38;98319.08;;;1.50;37.46
45991;BME280;31721;41.740;-88.000;2023-02-22T03:52:09;98323.04;;;1.49;37.45
45991;BME280;31721;41.740;-88.000;2023-02-22T03:54:36;98319.53;;;1.56;37.44
45991;BME280;31721;41.740;-88.000;2023-02-22T03:57:11;98315.29;;;1.43;37.67
45991;BME280;31721;41.740;-88.000;2023-02-22T03:59:41;98320.30;;;1.62;37.87
45991;BME280;31721;41.740;-88.000;2023-02-22T04:02:10;98327.03;;;1.52;37.91
45991;BME280;31721;41.740;-88.000;2023-02-22T04:04:38;98319.03;;;1.60;37.82
45991;BME280;31721;41.740;-88.000;2023-02-22T04:07:05;98320.21;;;1.57;37.87
45991;BME280;31721;41.740;-88.000;2023-02-22T04:09:33;98322.58;;;1.61;37.99
45991;BME280;31721;41.740;-88.000;2023-02-22T04:12:01;98308.20;;;1.68;38.34
45991;BME280;31721;41.740;-88.000;2023-02-22T04:14:29;98304.61;;;1.54;38.12
45991;BME280;31721;41.740;-88.000;2023-02-22T04:16:57;98285.69;;;1.70;38.49
45991;BME280;31721;41.740;-88.000;2023-02-22T04:19:25;98287.04;;;1.59;38.21
45991;BME280;31721;41.740;-88.000;2023-02-22T04:21:53;98284.86;;;1.71;38.00
45991;BME280;31721;41.740;-88.000;2023-02-22T04:24:21;98288.85;;;1.79;38.34
45991;BME280;31721;41.740;-88.000;2023-02-22T04:26:49;98288.31;;;1.60;38.55
45991;BME280;31721;41.740;-88.000;2023-02-22T04:29:17;98276.68;;;1.74;38.37
45991;BME280;31721;41.740;-88.000;2023-02-22T04:31:45;98289.02;;;1.53;38.31
45991;BME280;31721;41.740;-88.000;2023-02-22T04:34:13;98287.02;;;1.62;38.62
45991;BME280;31721;41.740;-88.000;2023-02-22T04:36:40;98282.23;;;1.43;39.40
45991;BME280;31721;41.740;-88.000;2023-02-22T04:39:08;98275.53;;;1.53;38.50
45991;BME280;31721;41.740;-88.000;2023-02-22T04:41:36;98274.70;;;1.10;39.66
45991;BME280;31721;41.740;-88.000;2023-02-22T04:44:04;98272.74;;;1.12;39.16
45991;BME280;31721;41.740;-88.000;2023-02-22T04:46:32;98264.71;;;1.29;38.89
45991;BME280;31721;41.740;-88.000;2023-02-22T04:49:00;98259.77;;;1.24;40.11
45991;BME280;31721;41.740;-88.000;2023-02-22T04:51:28;98246.67;;;1.03;40.25
45991;BME280;31721;41.740;-88.000;2023-02-22T04:53:56;98249.30;;;1.23;39.83
45991;BME280;31721;41.740;-88.000;2023-02-22T04:56:24;98225.83;;;1.27;39.80
45991;BME280;31721;41.740;-88.000;2023-02-22T04:58:51;98217.41;;;0.89;40.01
45991;BME280;31721;41.740;-88.000;2023-02-22T05:01:19;98212.36;;;0.96;39.64
45991;BME280;31721;41.740;-88.000;2023-02-22T05:03:47;98204.97;;;0.86;41.15
45991;BME280;31721;41.740;-88.000;2023-02-22T05:06:15;98204.68;;;0.81;40.68
45991;BME280;31721;41.740;-88.000;2023-02-22T05:08:43;98222.48;;;1.15;39.23
45991;BME280;31721;41.740;-88.000;2023-02-22T05:11:12;98223.79;;;1.09;40.95
45991;BME280;31721;41.740;-88.000;2023-02-22T05:13:40;98207.79;;;1.22;39.25
45991;BME280;31721;41.740;-88.000;2023-02-22T05:16:07;98187.58;;;1.29;39.78
45991;BME280;31721;41.740;-88.000;2023-02-22T05:18:35;98185.01;;;1.32;39.78
45991;BME280;31721;41.740;-88.000;2023-02-22T05:21:03;98179.12;;;1.20;39.58
45991;BME280;31721;41.740;-88.000;2023-02-22T05:23:31;98189.30;;;1.35;39.62
45991;BME280;31721;41.740;-88.000;2023-02-22T05:25:59;98177.16;;;1.17;39.73
45991;BME280;31721;41.740;-88.000;2023-02-22T05:28:27;98183.25;;;1.30;39.35
45991;BME280;31721;41.740;-88.000;2023-02-22T05:30:55;98174.89;;;1.38;39.20
45991;BME280;31721;41.740;-88.000;2023-02-22T05:33:22;98184.03;;;1.42;39.75
45991;BME280;31721;41.740;-88.000;2023-02-22T05:35:50;98194.38;;;1.46;39.65
45991;BME280;31721;41.740;-88.000;2023-02-22T05:38:18;98207.32;;;1.40;39.35
45991;BME280;31721;41.740;-88.000;2023-02-22T05:40:46;98194.42;;;1.31;39.59
45991;BME280;31721;41.740;-88.000;2023-02-22T05:43:14;98192.97;;;1.06;39.73
45991;BME280;31721;41.740;-88.000;2023-02-22T05:45:42;98187.82;;;1.14;39.25
45991;BME280;31721;41.740;-88.000;2023-02-22T05:48:10;98189.43;;;0.93;39.67
45991;BME280;31721;41.740;-88.000;2023-02-22T05:50:38;98171.10;;;0.96;39.60
45991;BME280;31721;41.740;-88.000;2023-02-22T05:53:11;98170.34;;;1.13;39.32
45991;BME280;31721;41.740;-88.000;2023-02-22T05:55:38;98146.06;;;1.05;39.20
45991;BME280;31721;41.740;-88.000;2023-02-22T05:58:06;98137.02;;;1.18;40.18
45991;BME280;31721;41.740;-88.000;2023-02-22T06:00:34;98130.96;;;0.77;41.05
45991;BME280;31721;41.740;-88.000;2023-02-22T06:03:04;98111.62;;;0.91;40.03
45991;BME280;31721;41.740;-88.000;2023-02-22T06:05:32;98101.50;;;0.79;40.56
45991;BME280;31721;41.740;-88.000;2023-02-22T06:08:02;98107.10;;;0.99;40.65
45991;BME280;31721;41.740;-88.000;2023-02-22T06:10:30;98093.75;;;0.87;40.51
45991;BME280;31721;41.740;-88.000;2023-02-22T06:12:59;98097.71;;;1.11;40.08
45991;BME280;31721;41.740;-88.000;2023-02-22T06:15:28;98084.84;;;0.87;40.28
45991;BME280;31721;41.740;-88.000;2023-02-22T06:17:56;98085.82;;;0.70;40.93
45991;BME280;31721;41.740;-88.000;2023-02-22T06:20:26;98099.95;;;0.68;41.25
45991;BME280;31721;41.740;-88.000;2023-02-22T06:22:56;98104.36;;;1.02;40.17
45991;BME280;31721;41.740;-88.000;2023-02-22T06:25:25;98105.07;;;0.76;40.91
45991;BME280;31721;41.740;-88.000;2023-02-22T06:27:53;98083.48;;;0.87;40.28
45991;BME280;31721;41.740;-88.000;2023-02-22T06:30:24;98080.72;;;0.89;40.52
45991;BME280;31721;41.740;-88.000;2023-02-22T06:32:53;98084.67;;;0.83;41.29
45991;BME280;31721;41.740;-88.000;2023-02-22T06:35:21;98079.03;;;0.92;40.78
45991;BME280;31721;41.740;-88.000;2023-02-22T06:37:49;98060.80;;;0.67;41.64
45991;BME280;31721;41.740;-88.000;2023-02-22T06:40:16;98057.62;;;0.54;42.15
45991;BME280;31721;41.740;-88.000;2023-02-22T06:42:47;98049.63;;;0.95;41.02
45991;BME280;31721;41.740;-88.000;2023-02-22T06:45:16;98051.20;;;0.65;42.29
45991;BME280;31721;41.740;-88.000;2023-02-22T06:47:44;98054.77;;;0.67;41.39
45991;BME280;31721;41.740;-88.000;2023-02-22T06:50:22;98046.63;;;0.69;41.60
45991;BME280;31721;41.740;-88.000;2023-02-22T06:52:51;98045.15;;;0.71;41.18
45991;BME280;31721;41.740;-88.000;2023-02-22T06:55:21;98041.86;;;0.91;41.20
45991;BME280;31721;41.740;-88.000;2023-02-22T06:57:50;98039.43;;;0.75;41.37
45991;BME280;31721;41.740;-88.000;2023-02-22T07:00:20;98039.84;;;0.94;41.30
45991;BME280;31721;41.740;-88.000;2023-02-22T07:02:48;98048.54;;;0.96;40.76
45991;BME280;31721;41.740;-88.000;2023-02-22T07:05:19;98058.37;;;0.98;41.01
45991;BME280;31721;41.740;-88.000;2023-02-22T07:07:48;98064.20;;;0.89;40.91
45991;BME280;31721;41.740;-88.000;2023-02-22T07:10:19;98071.86;;;0.85;41.67
45991;BME280;31721;41.740;-88.000;2023-02-22T07:12:47;98070.95;;;1.04;41.67
45991;BME280;31721;41.740;-88.000;2023-02-22T07:15:16;98067.05;;;1.14;41.41
45991;BME280;31721;41.740;-88.000;2023-02-22T07:17:44;98073.06;;;0.80;41.99
45991;BME280;31721;41.740;-88.000;2023-02-22T07:20:11;98080.58;;;0.62;42.28
45991;BME280;31721;41.740;-88.000;2023-02-22T07:22:39;98077.04;;;0.86;41.79
45991;BME280;31721;41.740;-88.000;2023-02-22T07:25:08;98064.32;;;0.79;41.65
45991;BME280;31721;41.740;-88.000;2023-02-22T07:27:37;98058.39;;;1.01;41.61
45991;BME280;31721;41.740;-88.000;2023-02-22T07:30:06;98058.00;;;1.05;41.82
45991;BME280;31721;41.740;-88.000;2023-02-22T07:32:34;98050.69;;;1.07;41.68
45991;BME280;31721;41.740;-88.000;2023-02-22T07:35:02;98045.66;;;0.93;41.28
45991;BME280;31721;41.740;-88.000;2023-02-22T07:37:31;98037.15;;;1.17;41.17
45991;BME280;31721;41.740;-88.000;2023-02-22T07:39:58;98044.29;;;1.17;41.09
45991;BME280;31721;41.740;-88.000;2023-02-22T07:42:25;98051.62;;;1.13;41.90
45991;BME280;31721;41.740;-88.000;2023-02-22T07:44:53;98046.52;;;1.12;41.22
45991;BME280;31721;41.740;-88.000;2023-02-22T07:47:21;98039.90;;;0.82;42.27
45991;BME280;31721;41.740;-88.000;2023-02-22T07:49:48;98032.98;;;1.00;41.51
45991;BME280;31721;41.740;-88.000;2023-02-22T07:52:16;98020.12;;;0.91;41.79
45991;BME280;31721;41.740;-88.000;2023-02-22T07:54:45;98011.37;;;1.23;41.51
45991;BME280;31721;41.740;-88.000;2023-02-22T07:57:14;98001.80;;;1.07;41.57
45991;BME280;31721;41.740;-88.000;2023-02-22T07:59:44;97993.90;;;1.05;42.12
45991;BME280;31721;41.740;-88.000;2023-02-22T08:02:15;97986.71;;;1.14;41.73
45991;BME280;31721;41.740;-88.000;2023-02-22T08:04:43;97986.17;;;1.07;41.82
45991;BME280;31721;41.740;-88.000;2023-02-22T08:07:11;97969.65;;;1.15;41.84
45991;BME280;31721;41.740;-88.000;2023-02-22T08:09:39;97966.75;;;1.23;41.68
45991;BME280;31721;41.740;-88.000;2023-02-22T08:12:06;97953.60;;;1.12;41.92
45991;BME280;31721;41.740;-88.000;2023-02-22T08:14:33;97945.15;;;1.17;41.81
45991;BME280;31721;41.740;-88.000;2023-02-22T08:17:01;97936.85;;;1.01;42.44
45991;BME280;31721;41.740;-88.000;2023-02-22T08:19:29;97916.03;;;0.85;42.35
45991;BME280;31721;41.740;-88.000;2023-02-22T08:21:56;97929.29;;;1.05;42.31
45991;BME280;31721;41.740;-88.000;2023-02-22T08:24:24;97930.86;;;1.00;43.14
45991;BME280;31721;41.740;-88.000;2023-02-22T08:26:52;97938.70;;;0.78;42.76
45991;BME280;31721;41.740;-88.000;2023-02-22T08:29:19;97930.17;;;1.04;42.26
45991;BME280;31721;41.740;-88.000;2023-02-22T08:31:50;97935.77;;;1.05;42.35
45991;BME280;31721;41.740;-88.000;2023-02-22T08:34:18;97918.20;;;1.04;42.26
45991;BME280;31721;41.740;-88.000;2023-02-22T08:36:46;97915.84;;;1.27;42.51
45991;BME280;31721;41.740;-88.000;2023-02-22T08:39:13;97897.46;;;1.14;42.01
45991;BME280;31721;41.740;-88.000;2023-02-22T08:41:41;97892.55;;;0.92;43.36
45991;BME280;31721;41.740;-88.000;2023-02-22T08:44:09;97868.07;;;0.93;42.77
45991;BME280;31721;41.740;-88.000;2023-02-22T08:46:37;97855.09;;;0.92;43.26
45991;BME280;31721;41.740;-88.000;2023-02-22T08:49:05;97859.47;;;0.93;43.05
45991;BME280;31721;41.740;-88.000;2023-02-22T08:51:35;97873.66;;;0.78;43.77
45991;BME280;31721;41.740;-88.000;2023-02-22T08:54:03;97871.92;;;0.84;43.20
45991;BME280;31721;41.740;-88.000;2023-02-22T08:56:31;97865.64;;;1.07;42.91
45991;BME280;31721;41.740;-88.000;2023-02-22T08:58:59;97854.58;;;0.79;43.49
45991;BME280;31721;41.740;-88.000;2023-02-22T09:01:27;97847.13;;;0.83;43.63
45991;BME280;31721;41.740;-88.000;2023-02-22T09:03:55;97835.92;;;0.76;44.01
45991;BME280;31721;41.740;-88.000;2023-02-22T09:06:23;97810.46;;;0.64;45.11
45991;BME280;31721;41.740;-88.000;2023-02-22T09:08:51;97828.42;;;0.74;44.32
45991;BME280;31721;41.740;-88.000;2023-02-22T09:11:19;97797.49;;;0.89;43.82
45991;BME280;31721;41.740;-88.000;2023-02-22T09:13:47;97843.50;;;0.87;44.81
45991;BME280;31721;41.740;-88.000;2023-02-22T09:16:16;97871.28;;;0.82;43.92
45991;BME280;31721;41.740;-88.000;2023-02-22T09:18:43;97879.40;;;0.78;44.28
45991;BME280;31721;41.740;-88.000;2023-02-22T09:21:11;97865.16;;;0.88;44.33
45991;BME280;31721;41.740;-88.000;2023-02-22T09:23:39;97884.72;;;1.28;44.47
45991;BME280;31721;41.740;-88.000;2023-02-22T09:26:07;97911.88;;;1.23;44.05
45991;BME280;31721;41.740;-88.000;2023-02-22T09:28:35;97900.81;;;1.14;44.50
45991;BME280;31721;41.740;-88.000;2023-02-22T09:31:03;97910.69;;;0.96;43.77
45991;BME280;31721;41.740;-88.000;2023-02-22T09:33:31;97933.31;;;0.93;44.57
45991;BME280;31721;41.740;-88.000;2023-02-22T09:36:00;97900.41;;;1.06;44.05
45991;BME280;31721;41.740;-88.000;2023-02-22T09:38:28;97870.70;;;0.98;44.16
45991;BME280;31721;41.740;-88.000;2023-02-22T09:41:06;97873.64;;;0.84;45.23
45991;BME280;31721;41.740;-88.000;2023-02-22T09:43:39;97827.32;;;0.84;44.94
45991;BME280;31721;41.740;-88.000;2023-02-22T09:46:19;97865.67;;;0.85;45.28
45991;BME280;31721;41.740;-88.000;2023-02-22T09:48:57;97896.68;;;0.98;44.78
45991;BME280;31721;41.740;-88.000;2023-02-22T09:51:30;97893.25;;;0.92;45.56
45991;BME280;31721;41.740;-88.000;2023-02-22T09:54:00;97864.02;;;0.88;44.75
45991;BME280;31721;41.740;-88.000;2023-02-22T09:56:30;97846.12;;;0.62;45.66
45991;BME280;31721;41.740;-88.000;2023-02-22T09:59:01;97869.68;;;0.92;44.59
45991;BME280;31721;41.740;-88.000;2023-02-22T10:01:33;97857.80;;;0.88;44.98
45991;BME280;31721;41.740;-88.000;2023-02-22T10:04:10;97875.14;;;0.94;44.75
45991;BME280;31721;41.740;-88.000;2023-02-22T10:06:47;97908.89;;;0.88;45.30
45991;BME280;31721;41.740;-88.000;2023-02-22T10:09:16;97887.51;;;0.82;45.78
45991;BME280;31721;41.740;-88.000;2023-02-22T10:11:50;97860.93;;;0.79;45.04
45991;BME280;31721;41.740;-88.000;2023-02-22T10:14:52;97853.68;;;0.56;45.97
45991;BME280;31721;41.740;-88.000;2023-02-22T10:17:34;97896.73;;;0.69;45.45
45991;BME280;31721;41.740;-88.000;2023-02-22T10:20:15;97888.78;;;0.59;45.63
45991;BME280;31721;41.740;-88.000;2023-02-22T10:22:55;97864.27;;;0.33;46.75
45991;BME280;31721;41.740;-88.000;2023-02-22T10:25:27;97878.38;;;0.33;47.22
45991;BME280;31721;41.740;-88.000;2023-02-22T10:28:00;97893.09;;;0.57;45.88
45991;BME280;31721;41.740;-88.000;2023-02-22T10:30:32;97863.87;;;0.59;46.81
45991;BME280;31721;41.740;-88.000;2023-02-22T10:33:08;97850.15;;;0.70;45.84
45991;BME280;31721;41.740;-88.000;2023-02-22T10:35:38;97856.93;;;0.51;48.48
45991;BME280;31721;41.740;-88.000;2023-02-22T10:38:13;97876.73;;;0.40;47.82
45991;BME280;31721;41.740;-88.000;2023-02-22T10:40:43;97863.13;;;0.53;47.43
45991;BME280;31721;41.740;-88.000;2023-02-22T10:43:14;97860.39;;;0.43;47.72
45991;BME280;31721;41.740;-88.000;2023-02-22T10:45:41;97862.08;;;0.35;48.92
45991;BME280;31721;41.740;-88.000;2023-02-22T10:48:12;97847.27;;;0.50;48.69
45991;BME280;31721;41.740;-88.000;2023-02-22T10:50:42;97856.33;;;0.27;49.46
45991;BME280;31721;41.740;-88.000;2023-02-22T10:53:11;97852.30;;;0.11;49.90
45991;BME280;31721;41.740;-88.000;2023-02-22T10:56:06;97860.14;;;0.25;48.89
45991;BME280;31721;41.740;-88.000;2023-02-22T10:58:43;97848.47;;;0.29;48.79
45991;BME280;31721;41.740;-88.000;2023-02-22T11:01:26;97818.86;;;0.25;49.14
45991;BME280;31721;41.740;-88.000;2023-02-22T11:03:57;97809.34;;;0.20;49.20
45991;BME280;31721;41.740;-88.000;2023-02-22T11:06:25;97828.01;;;0.21;50.08
45991;BME280;31721;41.740;-88.000;2023-02-22T11:09:04;97834.29;;;0.35;51.36
45991;BME280;31721;41.740;-88.000;2023-02-22T11:11:32;97819.50;;;0.49;49.25
45991;BME280;31721;41.740;-88.000;2023-02-22T11:14:00;97832.40;;;0.51;48.91
45991;BME280;31721;41.740;-88.000;2023-02-22T11:16:31;97856.45;;;0.42;49.49
45991;BME280;31721;41.740;-88.000;2023-02-22T11:19:02;97873.36;;;0.39;50.74
45991;BME280;31721;41.740;-88.000;2023-02-22T11:21:31;97885.09;;;0.49;48.67
45991;BME280;31721;41.740;-88.000;2023-02-22T11:24:04;97882.92;;;0.46;48.83
45991;BME280;31721;41.740;-88.000;2023-02-22T11:26:39;97889.25;;;0.33;51.36
45991;BME280;31721;41.740;-88.000;2023-02-22T11:29:11;97883.70;;;0.27;50.73
45991;BME280;31721;41.740;-88.000;2023-02-22T11:31:43;97864.67;;;0.27;50.58
45991;BME280;31721;41.740;-88.000;2023-02-22T11:34:28;97860.14;;;0.54;49.15
45991;BME280;31721;41.740;-88.000;2023-02-22T11:37:14;97869.12;;;0.68;48.94
45991;BME280;31721;41.740;-88.000;2023-02-22T11:39:42;97874.28;;;0.74;48.61
45991;BME280;31721;41.740;-88.000;2023-02-22T11:42:20;97867.52;;;0.66;49.03
45991;BME280;31721;41.740;-88.000;2023-02-22T11:44:48;97874.11;;;0.70;49.16
45991;BME280;31721;41.740;-88.000;2023-02-22T11:47:34;97890.84;;;0.16;50.15
45991;BME280;31721;41.740;-88.000;2023-02-22T11:50:09;97901.28;;;0.44;49.25
45991;BME280;31721;41.740;-88.000;2023-02-22T11:52:45;97920.55;;;0.47;48.99
45991;BME280;31721;41.740;-88.000;2023-02-22T11:55:22;97910.41;;;0.54;49.81
45991;BME280;31721;41.740;-88.000;2023-02-22T11:58:02;97901.42;;;0.69;48.67
45991;BME280;31721;41.740;-88.000;2023-02-22T12:00:43;97902.01;;;0.99;48.56
45991;BME280;31721;41.740;-88.000;2023-02-22T12:05:03;97897.09;;;0.62;48.77
45991;BME280;31721;41.740;-88.000;2023-02-22T12:07:47;97896.22;;;0.97;48.13
45991;BME280;31721;41.740;-88.000;2023-02-22T12:10:25;97898.03;;;0.99;48.00
45991;BME280;31721;41.740;-88.000;2023-02-22T12:13:08;97899.69;;;0.91;48.20
45991;BME280;31721;41.740;-88.000;2023-02-22T12:15:45;97885.03;;;0.87;48.40
45991;BME280;31721;41.740;-88.000;2023-02-22T12:18:23;97880.24;;;1.03;48.06
45991;BME280;31721;41.740;-88.000;2023-02-22T12:20:55;97901.06;;;1.01;47.99
45991;BME280;31721;41.740;-88.000;2023-02-22T12:23:29;97903.15;;;1.12;48.07
45991;BME280;31721;41.740;-88.000;2023-02-22T12:26:04;97901.57;;;1.04;48.13
45991;BME280;31721;41.740;-88.000;2023-02-22T12:28:36;97902.54;;;0.78;48.34
45991;BME280;31721;41.740;-88.000;2023-02-22T12:31:14;97908.83;;;0.84;48.63
45991;BME280;31721;41.740;-88.000;2023-02-22T12:33:53;97910.72;;;0.99;47.90
45991;BME280;31721;41.740;-88.000;2023-02-22T12:36:31;97912.51;;;0.98;48.01
45991;BME280;31721;41.740;-88.000;2023-02-22T12:39:08;97922.93;;;0.87;48.70
45991;BME280;31721;41.740;-88.000;2023-02-22T12:41:44;97927.15;;;0.71;48.67
45991;BME280;31721;41.740;-88.000;2023-02-22T12:44:18;97933.60;;;0.62;49.18
45991;BME280;31721;41.740;-88.000;2023-02-22T12:46:49;97930.70;;;0.53;48.97
45991;BME280;31721;41.740;-88.000;2023-02-22T12:49:27;97926.45;;;0.33;49.51
45991;BME280;31721;41.740;-88.000;2023-02-22T12:52:02;97916.85;;;0.73;48.52
45991;BME280;31721;41.740;-88.000;2023-02-22T12:54:40;97926.03;;;0.78;48.41
45991;BME280;31721;41.740;-88.000;2023-02-22T12:57:15;97929.72;;;0.66;48.72
45991;BME280;31721;41.740;-88.000;2023-02-22T12:59:49;97925.81;;;0.72;48.74
45991;BME280;31721;41.740;-88.000;2023-02-22T13:02:24;97940.84;;;0.41;49.77
45991;BME280;31721;41.740;-88.000;2023-02-22T13:04:53;97966.48;;;0.72;48.41
45991;BME280;31721;41.740;-88.000;2023-02-22T13:07:32;97951.30;;;0.90;48.54
45991;BME280;31721;41.740;-88.000;2023-02-22T13:10:18;97961.49;;;0.78;49.49
45991;BME280;31721;41.740;-88.000;2023-02-22T13:12:55;97950.64;;;0.85;48.75
45991;BME280;31721;41.740;-88.000;2023-02-22T13:15:31;97920.99;;;0.89;48.63
45991;BME280;31721;41.740;-88.000;2023-02-22T13:18:11;97940.89;;;0.73;49.23